Time;durP1;ratioP1;P1;durP2;ratioP2;P2;SDS_P1;SDS_P2;PMS_P1;PMS_P2;Temp;Humidity;BMP_temperature;BMP_pressure;BME280_temperature;BME280_humidity;BME280_pressure;Samples;Min_cycle;Max_cycle;Signal;HPM_P1;HPM_P2
2023/09/13 00:00:39;;;;;;;7.47;3.47;;;;;;;21.54;68.33;98662.97;5092809;28;20102;-45
2023/09/13 00:03:04;;;;;;;7.93;3.15;;;;;;;21.50;68.35;98660.03;5092738;28;20054;-45
2023/09/13 00:05:30;;;;;;;4.70;4.03;;;;;;;21.49;68.29;98665.63;5092706;28;20024;-45
2023/09/13 00:07:56;;;;;;;7.57;3.83;;;;;;;21.44;68.62;98658.47;5091601;28;20028;-45
2023/09/13 00:10:21;;;;;;;7.63;3.42;;;;;;;21.41;68.76;98661.66;5092573;28;20031;-45
2023/09/13 00:12:47;;;;;;;8.13;3.70;;;;;;;21.41;68.80;98658.16;5092537;28;20031;-45
2023/09/13 00:15:13;;;;;;;6.45;4.07;;;;;;;21.41;69.21;98664.31;5091924;28;20043;-45
2023/09/13 00:17:39;;;;;;;10.57;3.53;;;;;;;21.41;69.12;98663.50;5092467;28;20032;-45
2023/09/13 00:20:07;;;;;;;11.43;3.78;;;;;;;21.42;69.03;98662.44;5092273;28;20048;-45
2023/09/13 00:22:33;;;;;;;19.67;4.20;;;;;;;21.45;68.92;98660.06;5092395;28;20028;-45
2023/09/13 00:24:58;;;;;;;15.30;3.88;;;;;;;21.44;68.82;98661.13;5092369;28;20401;-45
2023/09/13 00:27:24;;;;;;;13.25;3.50;;;;;;;21.45;68.92;98656.56;5092315;28;20020;-45
2023/09/13 00:29:49;;;;;;;8.10;3.20;;;;;;;21.46;68.90;98647.50;5092663;28;20370;-45
2023/09/13 00:32:15;;;;;;;7.80;3.75;;;;;;;21.47;69.10;98644.56;5092373;28;20513;-45
2023/09/13 00:34:41;;;;;;;5.68;3.10;;;;;;;21.43;69.09;98640.84;5092248;28;20441;-45
2023/09/13 00:37:06;;;;;;;5.13;3.35;;;;;;;21.43;68.83;98645.38;5092161;28;20028;-45
2023/09/13 00:39:32;;;;;;;8.48;3.55;;;;;;;21.41;68.90;98629.63;5092185;28;20052;-45
2023/09/13 00:41:58;;;;;;;8.05;3.58;;;;;;;21.44;69.44;98626.41;5091116;28;20024;-45
2023/09/13 00:44:24;;;;;;;10.32;3.67;;;;;;;21.47;69.13;98619.72;5090825;28;20024;-45
2023/09/13 00:46:49;;;;;;;4.93;3.05;;;;;;;21.47;69.09;98619.72;5092376;28;20020;-45
2023/09/13 00:49:16;;;;;;;10.50;3.78;;;;;;;21.46;69.02;98624.28;5092037;28;20103;-45
2023/09/13 00:51:42;;;;;;;10.43;3.92;;;;;;;21.42;69.09;98628.53;5091911;28;20073;-45
2023/09/13 00:54:09;;;;;;;7.15;3.78;;;;;;;21.37;68.86;98633.09;5074076;28;20024;-45
2023/09/13 00:56:36;;;;;;;8.05;3.58;;;;;;;21.24;69.33;98637.94;5091910;28;20027;-45
2023/09/13 00:59:02;;;;;;;9.75;3.42;;;;;;;21.12;69.29;98642.75;5091890;28;20103;-45
2023/09/13 01:01:29;;;;;;;6.75;3.30;;;;;;;21.04;69.61;98640.66;5091880;28;20028;-45
2023/09/13 01:03:56;;;;;;;5.72;3.60;;;;;;;20.94;70.05;98647.59;5090545;28;20032;-45
2023/09/13 01:06:23;;;;;;;12.90;4.05;;;;;;;20.88;70.33;98645.19;5091750;28;20095;-45
2023/09/13 01:08:49;;;;;;;7.47;3.95;;;;;;;20.87;70.43;98643.63;5091822;28;20024;-45
2023/09/13 01:11:14;;;;;;;12.63;3.88;;;;;;;20.83;70.39;98642.56;5073578;28;20489;-45
2023/09/13 01:13:40;;;;;;;4.25;3.42;;;;;;;20.76;70.62;98645.47;5090459;28;20113;-45
2023/09/13 01:16:25;;;;;;;21.83;4.38;;;;;;;20.69;71.27;98637.75;5090408;28;20038;-45
2023/09/13 01:19:28;;;;;;;12.27;4.20;;;;;;;20.72;71.52;98641.75;5090184;28;20538;-45
2023/09/13 01:22:12;;;;;;;38.20;4.40;;;;;;;20.77;71.35;98630.31;5091636;28;20034;-45
2023/09/13 01:25:01;;;;;;;20.10;3.95;;;;;;;20.81;71.50;98634.03;5091715;28;20036;-44
2023/09/13 01:27:42;;;;;;;128.80;10.27;;;;;;;20.86;71.34;98629.47;5092660;28;20032;-45
2023/09/13 01:30:09;;;;;;;85.38;8.43;;;;;;;20.91;71.18;98618.00;5095616;28;20024;-45
2023/09/13 01:32:35;;;;;;;77.40;6.60;;;;;;;20.93;71.27;98616.66;5094234;28;20028;-45
2023/09/13 01:35:01;;;;;;;65.80;5.82;;;;;;;20.97;71.35;98616.09;5095487;28;20055;-45
2023/09/13 01:37:31;;;;;;;38.65;5.40;;;;;;;20.94;71.47;98620.13;5095594;28;20024;-45
2023/09/13 01:39:57;;;;;;;14.80;4.25;;;;;;;20.90;71.36;98617.19;5095556;28;20559;-45
2023/09/13 01:42:24;;;;;;;8.57;3.70;;;;;;;20.87;71.33;98619.63;5094128;28;20032;-45
2023/09/13 01:44:50;;;;;;;5.88;4.22;;;;;;;20.84;71.86;98615.59;5094210;28;20026;-45
2023/09/13 01:47:18;;;;;;;6.00;3.40;;;;;;;20.79;71.74;98615.63;5095413;28;20606;-45
2023/09/13 01:49:46;;;;;;;6.70;3.50;;;;;;;20.68;72.26;98630.81;5094033;28;20047;-45
2023/09/13 01:52:12;;;;;;;4.60;3.53;;;;;;;20.63;72.61;98638.03;5095211;28;20016;-45
2023/09/13 01:54:38;;;;;;;4.95;3.60;;;;;;;20.58;72.88;98641.44;5095293;28;20024;-45
2023/09/13 01:57:03;;;;;;;6.55;3.60;;;;;;;20.62;73.03;98652.41;5095171;28;20020;-45
2023/09/13 01:59:32;;;;;;;4.65;3.10;;;;;;;20.62;73.16;98647.88;5095457;28;20052;-45
2023/09/13 02:01:58;;;;;;;9.00;3.40;;;;;;;20.59;73.03;98648.44;5093983;28;20046;-45
2023/09/13 02:04:25;;;;;;;4.50;3.88;;;;;;;20.58;72.98;98651.31;5095126;28;20024;-45
2023/09/13 02:06:51;;;;;;;5.15;3.60;;;;;;;20.55;73.19;98647.34;5094891;28;20035;-45
2023/09/13 02:09:17;;;;;;;6.13;3.53;;;;;;;20.55;73.24;98650.00;5093665;28;20028;-45
2023/09/13 02:11:42;;;;;;;4.30;3.50;;;;;;;20.54;73.21;98654.53;5093808;28;20028;-45
2023/09/13 02:14:08;;;;;;;4.88;3.80;;;;;;;20.57;73.20;98649.75;5094870;28;20436;-45
2023/09/13 02:16:33;;;;;;;4.43;3.35;;;;;;;20.61;73.27;98648.16;5094758;28;20036;-45
2023/09/13 02:19:00;;;;;;;4.63;3.38;;;;;;;20.58;72.96;98644.13;5094537;28;20039;-45
2023/09/13 02:21:27;;;;;;;5.30;3.33;;;;;;;20.50;72.79;98642.81;5094695;28;20036;-45
2023/09/13 02:23:53;;;;;;;5.22;3.45;;;;;;;20.44;73.11;98646.50;5094610;28;20024;-45
2023/09/13 02:26:23;;;;;;;6.88;3.75;;;;;;;20.38;73.49;98647.56;5093463;28;20043;-45
2023/09/13 02:28:49;;;;;;;5.60;3.25;;;;;;;20.35;73.31;98642.78;5094554;28;20031;-45
2023/09/13 02:31:26;;;;;;;5.97;3.60;;;;;;;20.27;73.66;98636.13;5093126;28;20024;-45
2023/09/13 02:33:53;;;;;;;7.05;3.13;;;;;;;20.24;73.38;98618.00;5093266;28;20020;-45
2023/09/13 02:36:18;;;;;;;6.95;3.53;;;;;;;20.23;73.68;98615.59;5093080;28;20024;-45
2023/09/13 02:38:44;;;;;;;5.70;3.40;;;;;;;20.24;73.95;98612.69;5093828;28;20032;-45
2023/09/13 02:41:10;;;;;;;3.88;3.20;;;;;;;20.28;74.04;98607.59;5093067;28;20024;-45
2023/09/13 02:43:36;;;;;;;4.25;3.28;;;;;;;20.33;73.75;98607.59;5094548;28;20032;-45
2023/09/13 02:46:02;;;;;;;7.28;3.60;;;;;;;20.37;73.76;98619.34;5092921;28;20506;-45
2023/09/13 02:48:29;;;;;;;4.43;3.25;;;;;;;20.43;73.74;98620.13;5093032;28;20026;-45
2023/09/13 02:50:54;;;;;;;7.95;3.50;;;;;;;20.49;73.76;98619.88;5094048;28;20035;-45
2023/09/13 02:53:20;;;;;;;7.13;3.47;;;;;;;20.61;73.55;98626.84;5092820;28;20051;-45
2023/09/13 02:55:45;;;;;;;5.43;3.90;;;;;;;20.68;73.34;98630.03;5093053;28;20082;-45
2023/09/13 02:58:12;;;;;;;8.25;3.72;;;;;;;20.69;73.42;98620.97;5094006;28;20027;-45
2023/09/13 03:00:42;;;;;;;6.63;3.70;;;;;;;20.71;73.15;98624.94;5092651;28;20026;-45
2023/09/13 03:03:08;;;;;;;6.32;3.47;;;;;;;20.69;72.61;98621.75;5092635;28;20062;-45
2023/09/13 03:05:33;;;;;;;5.30;2.95;;;;;;;20.67;72.44;98634.56;5093893;28;20055;-45
2023/09/13 03:08:00;;;;;;;6.40;3.58;;;;;;;20.61;72.76;98624.97;5092785;28;20472;-45
2023/09/13 03:10:27;;;;;;;5.50;3.50;;;;;;;20.63;72.91;98630.03;5093705;28;20028;-45
2023/09/13 03:12:52;;;;;;;5.15;3.75;;;;;;;20.62;72.78;98625.75;5092388;28;20060;-45
2023/09/13 03:15:18;;;;;;;8.05;3.92;;;;;;;20.55;72.83;98626.00;5093705;28;20461;-45
2023/09/13 03:17:44;;;;;;;4.40;3.70;;;;;;;20.50;73.08;98624.16;5093647;28;20059;-45
2023/09/13 03:20:10;;;;;;;8.57;3.80;;;;;;;20.49;73.12;98627.06;5092081;28;20509;-45
2023/09/13 03:22:35;;;;;;;4.00;3.42;;;;;;;20.45;73.23;98621.47;5093583;28;20066;-45
2023/09/13 03:25:02;;;;;;;3.72;3.22;;;;;;;20.43;73.09;98623.59;5093469;28;20055;-45
2023/09/13 03:27:28;;;;;;;5.47;3.30;;;;;;;20.42;73.34;98626.53;5093426;28;20473;-45
2023/09/13 03:29:53;;;;;;;9.32;4.53;;;;;;;20.36;73.81;98612.38;5093416;28;20059;-44
2023/09/13 03:32:19;;;;;;;8.43;4.13;;;;;;;20.35;73.84;98616.94;5091950;28;20112;-45
2023/09/13 03:34:45;;;;;;;7.63;3.42;;;;;;;20.34;73.75;98622.50;5093344;28;20048;-45
2023/09/13 03:37:10;;;;;;;12.77;4.10;;;;;;;20.32;73.79;98619.31;5093497;28;20062;-45
2023/09/13 03:39:36;;;;;;;10.15;3.78;;;;;;;20.30;73.79;98619.59;5093234;28;20498;-45
2023/09/13 03:42:02;;;;;;;4.60;3.13;;;;;;;20.28;73.82;98620.91;5093123;28;20021;-45
2023/09/13 03:44:28;;;;;;;6.47;3.95;;;;;;;20.26;73.96;98618.53;5093142;28;20024;-45
2023/09/13 03:46:55;;;;;;;6.55;3.72;;;;;;;20.24;73.85;98615.34;5093109;28;20020;-45
2023/09/13 03:49:21;;;;;;;11.40;3.47;;;;;;;20.25;73.96;98618.78;5092719;28;20050;-45
2023/09/13 03:51:47;;;;;;;9.13;4.03;;;;;;;20.29;73.89;98619.88;5091049;28;20498;-45
2023/09/13 03:54:13;;;;;;;3.90;3.50;;;;;;;20.29;73.72;98614.53;5093007;28;20379;-45
2023/09/13 03:56:38;;;;;;;6.63;3.63;;;;;;;20.30;73.62;98610.78;5091591;28;20077;-45
2023/09/13 03:59:04;;;;;;;4.75;3.75;;;;;;;20.30;73.42;98618.78;5092868;28;20020;-45
2023/09/13 04:01:30;;;;;;;5.50;4.00;;;;;;;20.27;73.65;98614.00;5092741;28;20032;-45
2023/09/13 04:03:56;;;;;;;11.95;4.93;;;;;;;20.25;73.77;98619.59;5092774;28;20114;-45
2023/09/13 04:06:22;;;;;;;6.22;3.38;;;;;;;20.26;73.85;98628.38;5092711;28;20098;-45
2023/09/13 04:08:47;;;;;;;7.70;4.10;;;;;;;20.27;73.86;98616.66;5091609;28;20197;-45
2023/09/13 04:11:13;;;;;;;11.20;4.55;;;;;;;20.32;74.10;98624.66;5092569;28;20024;-45
2023/09/13 04:13:38;;;;;;;8.60;3.72;;;;;;;20.40;73.73;98626.00;5092574;28;20024;-45
2023/09/13 04:16:06;;;;;;;10.38;4.45;;;;;;;20.43;74.07;98631.59;5091573;28;20024;-45
2023/09/13 04:18:32;;;;;;;14.82;4.55;;;;;;;20.48;74.07;98631.63;5092291;28;20021;-45
2023/09/13 04:20:58;;;;;;;14.57;5.32;;;;;;;20.52;74.05;98634.53;5092463;28;20028;-45
2023/09/13 04:23:24;;;;;;;16.02;5.28;;;;;;;20.55;74.42;98645.47;5092449;28;20020;-45
2023/09/13 04:25:50;;;;;;;8.00;4.82;;;;;;;20.53;74.26;98641.47;5092381;28;20035;-45
2023/09/13 04:28:17;;;;;;;11.52;4.72;;;;;;;20.47;74.68;98635.31;5091403;28;20032;-45
2023/09/13 04:30:42;;;;;;;14.73;4.40;;;;;;;20.47;74.88;98642.53;5092311;28;20066;-45
2023/09/13 04:33:08;;;;;;;16.08;5.10;;;;;;;20.41;75.14;98649.72;5090926;28;20111;-45
2023/09/13 04:35:34;;;;;;;17.13;4.80;;;;;;;20.36;75.44;98649.69;5090907;28;20073;-45
2023/09/13 04:38:00;;;;;;;10.77;6.47;;;;;;;20.32;75.59;98652.13;5092268;28;20020;-45
2023/09/13 04:40:25;;;;;;;12.13;5.43;;;;;;;20.28;75.81;98651.06;5092206;28;20409;-45
2023/09/13 04:43:15;;;;;;;18.38;6.95;;;;;;;20.22;76.46;98652.09;5092205;28;20020;-44
2023/09/13 04:45:40;;;;;;;14.57;6.28;;;;;;;20.22;76.60;98648.63;5091973;28;20469;-45
2023/09/13 04:48:06;;;;;;;13.10;6.13;;;;;;;20.23;76.88;98650.25;5092113;28;20119;-45
2023/09/13 04:50:32;;;;;;;46.45;7.45;;;;;;;20.24;76.98;98649.97;5091062;28;20492;-45
2023/09/13 04:52:57;;;;;;;52.47;10.15;;;;;;;20.27;77.24;98654.78;5090900;28;20024;-45
2023/09/13 04:55:24;;;;;;;28.70;7.47;;;;;;;20.29;77.14;98651.84;5091941;28;20020;-45
2023/09/13 04:57:49;;;;;;;20.77;6.85;;;;;;;20.30;77.08;98656.09;5091968;28;20016;-45
2023/09/13 05:00:16;;;;;;;134.20;13.70;;;;;;;20.31;77.17;98660.38;5091909;28;20405;-45
2023/09/13 05:02:42;;;;;;;36.83;7.07;;;;;;;20.28;77.06;98651.06;5091588;28;20031;-44
2023/09/13 05:05:08;;;;;;;35.47;7.07;;;;;;;20.24;76.99;98657.97;5090696;28;20020;-45
2023/09/13 05:07:34;;;;;;;38.45;6.60;;;;;;;20.19;77.18;98659.81;5090769;28;20035;-45
2023/09/13 05:09:59;;;;;;;43.30;6.72;;;;;;;20.17;77.29;98670.75;5090778;28;20028;-45
2023/09/13 05:12:25;;;;;;;26.55;5.18;;;;;;;20.15;77.26;98668.34;5090455;28;20031;-45
2023/09/13 05:14:50;;;;;;;30.08;6.25;;;;;;;20.17;77.18;98670.75;5091808;28;20423;-45
2023/09/13 05:17:16;;;;;;;44.83;7.20;;;;;;;20.18;76.90;98675.00;5090726;28;20059;-45
2023/09/13 05:19:42;;;;;;;46.42;6.78;;;;;;;20.27;76.83;98675.28;5090220;28;20048;-45
2023/09/13 05:22:08;;;;;;;84.35;9.25;;;;;;;20.34;76.44;98673.97;5091648;28;20031;-45
2023/09/13 05:24:33;;;;;;;132.35;13.93;;;;;;;20.39;76.40;98681.19;5091676;28;20023;-45
2023/09/13 05:26:59;;;;;;;96.85;11.73;;;;;;;20.44;76.32;98672.38;5090413;28;20020;-45
2023/09/13 05:29:25;;;;;;;113.53;13.95;;;;;;;20.47;76.27;98680.66;5090328;28;20055;-45
2023/09/13 05:31:51;;;;;;;79.35;10.30;;;;;;;20.53;76.03;98687.59;5090216;28;20570;-45
2023/09/13 05:34:16;;;;;;;97.60;12.52;;;;;;;20.57;76.17;98689.75;5091575;28;20028;-45
2023/09/13 05:36:42;;;;;;;166.82;17.52;;;;;;;20.61;75.96;98688.97;5090241;28;20080;-45
2023/09/13 05:39:08;;;;;;;48.67;8.18;;;;;;;20.67;75.14;98687.09;5091862;28;20016;-45
2023/09/13 05:41:34;;;;;;;43.22;6.88;;;;;;;20.67;74.89;98679.91;5090199;28;20067;-45
2023/09/13 05:44:00;;;;;;;92.82;12.32;;;;;;;20.72;74.56;98682.53;5090315;28;20177;-45
2023/09/13 05:46:26;;;;;;;100.78;12.88;;;;;;;20.77;74.37;98686.31;5090214;28;20028;-45
2023/09/13 05:48:51;;;;;;;103.75;13.38;;;;;;;20.78;74.00;98688.69;5091447;28;20031;-45
2023/09/13 05:51:19;;;;;;;92.28;13.70;;;;;;;20.80;74.14;98688.44;5090065;28;20032;-45
2023/09/13 05:53:45;;;;;;;95.68;10.90;;;;;;;20.83;73.93;98688.69;5091454;28;20027;-45
2023/09/13 05:56:11;;;;;;;71.07;9.70;;;;;;;20.87;73.72;98684.44;5091375;28;20034;-45
2023/09/13 05:58:43;;;;;;;57.80;8.40;;;;;;;20.88;73.60;98682.56;5089934;28;20036;-45
2023/09/13 06:01:10;;;;;;;70.38;9.70;;;;;;;20.89;73.49;98679.63;5091643;28;20024;-45
2023/09/13 06:03:36;;;;;;;52.17;7.95;;;;;;;20.92;73.45;98687.06;5091318;28;20028;-45
2023/09/13 06:06:02;;;;;;;28.83;5.97;;;;;;;20.97;73.18;98690.81;5091260;28;20035;-45
2023/09/13 06:08:28;;;;;;;176.32;15.73;;;;;;;21.01;73.46;98691.91;5091281;28;20440;-45
2023/09/13 06:10:53;;;;;;;67.60;7.75;;;;;;;21.03;72.95;98698.56;5089803;28;20478;-45
2023/09/13 06:13:19;;;;;;;70.05;8.93;;;;;;;21.03;72.74;98705.78;5090651;28;20052;-45
2023/09/13 06:15:45;;;;;;;53.60;7.15;;;;;;;21.02;72.91;98706.81;5094824;28;20065;-45
2023/09/13 06:18:10;;;;;;;25.77;5.57;;;;;;;21.02;72.79;98715.63;5094851;28;20088;-45
2023/09/13 06:20:36;;;;;;;47.38;8.55;;;;;;;21.03;72.89;98711.91;5094622;28;20105;-45
2023/09/13 06:23:01;;;;;;;44.78;7.15;;;;;;;21.05;72.89;98719.66;5094770;28;20027;-45
2023/09/13 06:25:27;;;;;;;29.60;5.45;;;;;;;21.08;73.04;98713.75;5094685;28;20020;-45
2023/09/13 06:27:53;;;;;;;28.95;5.20;;;;;;;21.11;72.73;98723.91;5093357;28;20050;-45
2023/09/13 06:30:20;;;;;;;30.35;5.88;;;;;;;21.12;72.77;98725.50;5094657;28;20031;-45
2023/09/13 06:32:46;;;;;;;44.97;7.40;;;;;;;21.10;72.61;98733.75;5094473;28;20115;-45
2023/09/13 06:35:13;;;;;;;24.95;5.53;;;;;;;21.09;72.69;98740.19;5094549;28;20106;-45
2023/09/13 06:37:40;;;;;;;26.50;5.22;;;;;;;21.08;73.15;98737.78;5094437;28;20016;-45
2023/09/13 06:40:07;;;;;;;35.67;7.20;;;;;;;21.05;72.99;98735.66;5094355;28;20077;-45
2023/09/13 06:42:32;;;;;;;36.38;10.70;;;;;;;21.04;73.08;98742.03;5092988;28;20032;-45
2023/09/13 06:44:59;;;;;;;44.63;10.38;;;;;;;21.03;73.13;98737.78;5093010;28;20024;-45
2023/09/13 06:47:28;;;;;;;26.27;6.72;;;;;;;21.03;73.52;98754.59;5094171;28;20031;-45
2023/09/13 06:49:54;;;;;;;25.35;7.55;;;;;;;21.04;73.28;98764.19;5094168;28;20031;-45
2023/09/13 06:52:20;;;;;;;16.33;5.55;;;;;;;21.06;73.20;98764.72;5094063;28;20031;-45
2023/09/13 06:54:46;;;;;;;41.03;8.80;;;;;;;21.04;73.49;98774.06;5094432;28;20029;-45
2023/09/13 06:57:12;;;;;;;27.88;5.68;;;;;;;21.04;73.51;98774.84;5094134;28;20028;-45
2023/09/13 06:59:38;;;;;;;13.40;4.28;;;;;;;20.99;73.02;98779.38;5094281;28;20035;-45
2023/09/13 07:02:04;;;;;;;28.00;5.43;;;;;;;20.90;73.33;98787.91;5092659;28;20020;-45
2023/09/13 07:04:30;;;;;;;31.48;6.72;;;;;;;20.82;73.82;98777.78;5092881;28;20035;-45
2023/09/13 07:06:56;;;;;;;22.92;6.35;;;;;;;20.78;74.03;98774.03;5093843;28;20047;-45
2023/09/13 07:09:21;;;;;;;22.88;6.03;;;;;;;20.69;74.34;98765.78;5093818;28;20109;-45
2023/09/13 07:11:47;;;;;;;57.10;8.70;;;;;;;20.58;75.24;98766.78;5093732;28;20170;-45
2023/09/13 07:14:13;;;;;;;33.47;6.70;;;;;;;20.47;75.75;98781.16;5094013;28;20036;-45
2023/09/13 07:16:38;;;;;;;30.65;6.57;;;;;;;20.30;76.92;98776.84;5093717;28;20497;-45
2023/09/13 07:19:04;;;;;;;54.63;10.30;;;;;;;20.13;78.13;98771.72;5092178;28;20443;-45
2023/09/13 07:21:29;;;;;;;50.40;8.82;;;;;;;20.05;79.31;98771.41;5093647;28;20055;-44
2023/09/13 07:23:55;;;;;;;41.60;7.57;;;;;;;20.00;80.00;98782.88;5093530;28;20101;-45
2023/09/13 07:26:21;;;;;;;45.10;9.65;;;;;;;19.98;80.95;98782.31;5075365;28;20515;-44
2023/09/13 07:28:47;;;;;;;49.45;9.48;;;;;;;20.02;82.02;98782.59;5093488;28;20031;-45
2023/09/13 07:31:13;;;;;;;84.82;9.35;;;;;;;20.05;82.44;98782.88;5091995;28;20063;-45
2023/09/13 07:33:38;;;;;;;42.75;7.57;;;;;;;20.08;82.41;98785.03;5093334;28;20020;-45
2023/09/13 07:36:04;;;;;;;53.25;8.43;;;;;;;20.10;82.71;98792.75;5093336;28;20023;-45
2023/09/13 07:38:30;;;;;;;41.60;6.78;;;;;;;20.18;82.83;98786.91;5091938;28;20027;-45
2023/09/13 07:40:56;;;;;;;37.67;6.85;;;;;;;20.31;82.71;98785.66;5093209;28;20028;-45
2023/09/13 07:43:22;;;;;;;51.03;7.05;;;;;;;20.43;82.19;98788.09;5091877;28;20120;-45
2023/09/13 07:45:49;;;;;;;46.88;7.18;;;;;;;20.53;81.89;98791.56;5093356;28;20107;-45
2023/09/13 07:48:14;;;;;;;39.35;8.07;;;;;;;20.61;81.31;98784.97;5093089;28;20012;-45
2023/09/13 07:50:40;;;;;;;43.33;8.50;;;;;;;20.68;80.81;98788.16;5091666;28;20051;-45
2023/09/13 07:53:12;;;;;;;14.90;5.80;;;;;;;20.77;80.22;98787.66;5092871;28;20044;-45
2023/09/13 07:55:39;;;;;;;31.92;7.30;;;;;;;20.78;79.99;98786.59;5092944;28;20047;-45
2023/09/13 07:58:06;;;;;;;23.48;6.60;;;;;;;20.79;79.64;98804.22;5091614;28;20382;-45
2023/09/13 08:00:32;;;;;;;27.45;6.22;;;;;;;20.83;79.76;98800.72;5091512;28;20024;-45
2023/09/13 08:02:59;;;;;;;26.98;5.38;;;;;;;20.90;79.51;98805.81;5091516;28;20420;-44
2023/09/13 08:05:25;;;;;;;18.55;5.28;;;;;;;20.98;78.85;98805.28;5074704;28;20031;-45
2023/09/13 08:07:53;;;;;;;23.13;5.05;;;;;;;21.06;78.59;98809.28;5092700;28;20020;-45
2023/09/13 08:10:18;;;;;;;28.55;6.47;;;;;;;21.14;77.90;98814.09;5092607;28;20490;-45
2023/09/13 08:12:44;;;;;;;37.00;5.72;;;;;;;21.23;77.72;98830.38;5091519;28;20039;-45
2023/09/13 08:15:10;;;;;;;23.83;5.00;;;;;;;21.32;77.23;98836.78;5092880;28;20028;-45
2023/09/13 08:17:36;;;;;;;37.30;8.82;;;;;;;21.38;76.67;98835.72;5091468;28;20024;-45
2023/09/13 08:20:04;;;;;;;15.27;5.55;;;;;;;21.43;76.33;98838.44;5090950;28;20051;-45
2023/09/13 08:22:30;;;;;;;39.33;9.32;;;;;;;21.47;75.96;98849.34;5092692;28;20410;-45
2023/09/13 08:24:56;;;;;;;32.85;6.50;;;;;;;21.51;75.71;98858.44;5092366;28;20035;-45
2023/09/13 08:27:22;;;;;;;41.97;10.15;;;;;;;21.56;75.55;98869.13;5091127;28;20032;-44
2023/09/13 08:29:48;;;;;;;27.55;7.10;;;;;;;21.61;75.17;98863.81;5091401;28;20129;-45
2023/09/13 08:32:14;;;;;;;41.40;10.05;;;;;;;21.65;75.07;98869.38;5090896;28;20103;-44
2023/09/13 08:34:40;;;;;;;12.70;4.88;;;;;;;21.68;74.65;98866.97;5090981;28;20050;-45
2023/09/13 08:37:06;;;;;;;10.60;3.92;;;;;;;21.76;73.86;98868.31;5091737;28;20457;-45
2023/09/13 08:39:32;;;;;;;12.07;5.50;;;;;;;21.84;73.74;98865.09;5092158;28;20553;-45
2023/09/13 08:41:58;;;;;;;10.77;4.57;;;;;;;21.95;72.90;98865.88;5090806;28;20035;-45
2023/09/13 08:44:25;;;;;;;19.35;5.45;;;;;;;22.07;72.34;98869.06;5092148;28;20020;-45
2023/09/13 08:46:56;;;;;;;15.23;4.70;;;;;;;22.16;71.50;98874.66;5090932;28;20020;-45
2023/09/13 08:49:23;;;;;;;21.10;4.75;;;;;;;22.28;71.20;98877.84;5092399;28;20432;-45
2023/09/13 08:51:51;;;;;;;46.80;7.03;;;;;;;22.34;71.00;98879.44;5091976;28;20095;-45
2023/09/13 08:54:18;;;;;;;82.03;9.98;;;;;;;22.36;70.93;98883.72;5092005;28;20061;-45
2023/09/13 08:56:45;;;;;;;33.63;6.85;;;;;;;22.34;70.69;98884.78;5090633;28;20020;-45
2023/09/13 08:59:15;;;;;;;23.00;6.80;;;;;;;22.30;71.32;98888.28;5091932;28;20035;-45
2023/09/13 09:01:46;;;;;;;47.55;7.70;;;;;;;22.22;71.16;98886.13;5092188;28;20101;-45
2023/09/13 09:04:14;;;;;;;24.63;6.32;;;;;;;22.10;72.25;98881.09;5092025;28;20572;-45
2023/09/13 09:06:41;;;;;;;20.85;6.15;;;;;;;22.07;73.25;98887.78;5092050;28;20370;-45
2023/09/13 09:09:07;;;;;;;14.52;5.60;;;;;;;22.08;73.13;98884.03;5091929;28;20024;-45
2023/09/13 09:11:36;;;;;;;19.02;6.05;;;;;;;22.08;73.24;98886.69;5090490;28;20112;-45
2023/09/13 09:14:03;;;;;;;33.53;7.25;;;;;;;22.08;73.03;98889.38;5091787;28;20047;-45
2023/09/13 09:16:31;;;;;;;35.10;10.80;;;;;;;22.12;73.30;98892.31;5091822;28;20378;-45
2023/09/13 09:19:01;;;;;;;45.92;10.85;;;;;;;22.11;73.48;98896.84;5091549;28;20048;-45
2023/09/13 09:21:27;;;;;;;22.48;6.22;;;;;;;22.08;73.68;98893.91;5092043;28;20086;-45
2023/09/13 09:23:54;;;;;;;39.35;8.48;;;;;;;22.03;74.46;98905.41;5091775;28;20029;-45
2023/09/13 09:26:22;;;;;;;56.22;11.68;;;;;;;22.08;74.75;98892.03;5090378;28;20401;-45
2023/09/13 09:28:48;;;;;;;17.80;6.53;;;;;;;22.19;74.35;98898.16;5090731;28;20055;-45
2023/09/13 09:31:16;;;;;;;55.28;11.98;;;;;;;22.31;74.14;98900.56;5091603;28;20047;-45
2023/09/13 09:33:42;;;;;;;24.02;8.07;;;;;;;22.38;73.85;98901.09;5091726;28;20027;-45
2023/09/13 09:36:09;;;;;;;26.02;7.53;;;;;;;22.37;74.16;98891.44;5091975;28;20024;-45
2023/09/13 09:38:35;;;;;;;28.45;6.72;;;;;;;22.37;74.28;98902.16;5090326;28;20036;-45
2023/09/13 09:41:02;;;;;;;26.13;7.53;;;;;;;22.37;74.64;98910.16;5073475;28;20074;-45
2023/09/13 09:43:29;;;;;;;19.88;6.30;;;;;;;22.33;75.02;98906.44;5091555;28;20024;-45
2023/09/13 09:45:55;;;;;;;32.35;7.28;;;;;;;22.35;75.38;98904.28;5091508;28;20490;-45
2023/09/13 09:48:21;;;;;;;18.67;6.55;;;;;;;22.23;76.18;98906.44;5092291;28;20027;-45
2023/09/13 09:50:56;;;;;;;27.25;7.63;;;;;;;22.00;78.15;98916.66;5094059;28;20033;-45
2023/09/13 09:53:24;;;;;;;40.28;9.98;;;;;;;21.83;79.98;98905.44;5095419;28;20020;-44
2023/09/13 09:55:51;;;;;;;22.88;8.23;;;;;;;21.76;81.17;98913.72;5093952;28;20104;-45
2023/09/13 09:58:17;;;;;;;25.75;7.57;;;;;;;21.83;82.20;98908.94;5095233;28;20107;-45
2023/09/13 10:00:51;;;;;;;23.30;6.45;;;;;;;22.01;81.99;98922.78;5095191;28;20162;-45
2023/09/13 10:03:18;;;;;;;22.65;7.00;;;;;;;22.14;82.23;98908.88;5093917;28;20431;-45
2023/09/13 10:06:11;;;;;;;17.30;7.30;;;;;;;22.12;81.87;98911.81;5095038;28;20067;-45
2023/09/13 10:08:38;;;;;;;30.33;9.85;;;;;;;22.12;82.49;98922.50;5095399;28;20036;-45
2023/09/13 10:11:05;;;;;;;16.23;6.20;;;;;;;22.22;82.18;98912.88;5094929;28;20110;-45
2023/09/13 10:13:32;;;;;;;9.13;5.65;;;;;;;22.34;80.99;98913.41;5095004;28;20059;-45
2023/09/13 10:15:59;;;;;;;17.40;5.72;;;;;;;22.44;80.10;98915.25;5094904;28;20031;-45
2023/09/13 10:18:25;;;;;;;30.17;6.38;;;;;;;22.57;79.26;98917.31;5094623;28;20439;-45
2023/09/13 10:20:56;;;;;;;12.75;5.60;;;;;;;22.72;78.64;98917.28;5094869;28;20052;-45
2023/09/13 10:23:29;;;;;;;19.15;5.80;;;;;;;22.89;76.66;98911.56;5094816;28;20032;-45
2023/09/13 10:25:58;;;;;;;11.93;5.78;;;;;;;23.01;75.82;98911.25;5094817;28;20024;-45
2023/09/13 10:28:29;;;;;;;12.75;5.53;;;;;;;23.16;74.43;98914.94;5094575;28;20020;-45
2023/09/13 10:31:00;;;;;;;21.38;6.55;;;;;;;23.24;73.21;98911.66;5094653;28;20024;-45
2023/09/13 10:33:30;;;;;;;14.73;6.18;;;;;;;23.30;72.91;98911.38;5094600;28;20036;-45
2023/09/13 10:35:59;;;;;;;12.88;5.70;;;;;;;23.41;71.87;98908.63;5093204;28;20108;-45
2023/09/13 10:38:37;;;;;;;12.73;5.57;;;;;;;23.53;70.99;98914.41;5093145;28;20054;-45
2023/09/13 10:41:07;;;;;;;21.95;7.03;;;;;;;23.62;69.84;98910.03;5094464;28;20077;-45
2023/09/13 10:43:34;;;;;;;9.90;5.10;;;;;;;23.63;69.65;98911.66;5094628;28;20078;-45
2023/09/13 10:46:02;;;;;;;14.20;6.07;;;;;;;23.67;69.04;98911.88;5093050;28;20478;-45
2023/09/13 10:48:30;;;;;;;14.30;6.35;;;;;;;23.64;68.81;98915.13;5094306;28;20044;-45
2023/09/13 10:50:58;;;;;;;13.93;5.00;;;;;;;23.64;68.60;98915.13;5094299;28;20051;-45
2023/09/13 10:53:28;;;;;;;20.52;6.22;;;;;;;23.67;67.93;98909.22;5094138;28;20569;-45
2023/09/13 10:55:54;;;;;;;15.15;6.22;;;;;;;23.70;67.60;98912.13;5094199;28;20039;-45
2023/09/13 10:58:22;;;;;;;9.65;5.35;;;;;;;23.76;67.13;98906.72;5092754;28;20111;-45
2023/09/13 11:00:50;;;;;;;14.57;5.35;;;;;;;23.75;66.38;98905.94;5093622;28;20028;-45
2023/09/13 11:03:17;;;;;;;12.05;5.40;;;;;;;23.78;66.13;98900.00;5092726;28;20447;-45
2023/09/13 11:05:47;;;;;;;15.30;5.30;;;;;;;23.77;65.79;98892.25;5093975;28;20367;-45
2023/09/13 11:08:36;;;;;;;16.33;5.55;;;;;;;23.79;65.58;98895.47;5093879;28;20111;-45
2023/09/13 11:11:16;;;;;;;8.10;4.82;;;;;;;23.82;64.66;98894.91;5093832;28;20027;-45
2023/09/13 11:13:46;;;;;;;11.32;4.75;;;;;;;23.86;64.54;98898.59;5092951;28;20408;-45
2023/09/13 11:16:16;;;;;;;10.27;5.35;;;;;;;23.98;63.97;98903.59;5092403;28;20020;-45
2023/09/13 11:18:48;;;;;;;18.88;5.63;;;;;;;24.10;63.85;98907.47;5075325;28;20108;-45
2023/09/13 11:21:18;;;;;;;6.57;4.72;;;;;;;24.31;63.15;98912.66;5093575;28;20059;-45
2023/09/13 11:23:49;;;;;;;11.93;5.22;;;;;;;24.49;62.40;98913.78;5093647;28;20032;-45
2023/09/13 11:26:14;;;;;;;14.05;5.32;;;;;;;24.65;61.79;98911.72;5093583;28;20028;-45